Página principal
METAR-TAF:

METAR-TAF

Aeroportos :

Aeroporto Internacional de Bagdad

Bagdá, Iraque

latitude: 33-15-45N, longitude: 44-14-04E, altura: 35 m

Observação actual do tempo

O boletim foi feito há 33 minutos, às 04:00 UTC
Vento 2 kt de oes-noroeste
Temperatura 23°C
Humidade 38%
Pressão 1010 hPa
Visibilidade 10 km ou mais
sem nuvens abaixo de 1500 metros e sem cumulonimbus

METAR: ORBI 240400Z 30002KT CAVOK 23/08 Q1010 NOSIG

Hora: 07:33 (04:33 UTC)

Previsão

O boletim foi feito há 6 horas e 33 minutos, às 22:00 UTC
Previsão válida de 24 às 00 UTC a 24 às 24 UTC
Vento 6 kt de oes-noroeste
Visibilidade: 8000 m

TAF: ORBI 232200Z 2400/2424 30006KT 8000 NSC

Observações e previsões do tempo de mais de 4000 aeroportos (mensagens METAR e TAF).

As estações disponíveis são os pontos amarelos e vermelhos sobre o mapa.

Mova o rato sobre o mapa para ver o nome da estação.

Depois clique no ponto para visualizar as observações e previsões meteorológicas.

Para alterar o mapa : clique nos botões verdes com uma cruz preta para aumentar o zoom; no botão verde com uma pitada de zoom; ou nas setas verdes para mapas adjacentes.


METAR-TAF: